createdAt,value
2022-09-26T00:03:24.710Z,7.96
2022-09-26T00:08:26.308Z,7.96
2022-09-26T00:13:30.000Z,8.00
2022-09-26T00:18:32.045Z,8.07
2022-09-26T00:23:34.439Z,8.15
2022-09-26T00:28:36.753Z,8.25
2022-09-26T00:33:38.554Z,8.37
2022-09-26T00:38:40.286Z,8.43
2022-09-26T00:43:45.966Z,8.49
2022-09-26T00:48:55.813Z,8.52
2022-09-26T00:53:57.922Z,8.61
2022-09-26T00:59:09.741Z,8.67
2022-09-26T01:04:13.458Z,8.74
2022-09-26T01:09:15.842Z,8.77
2022-09-26T01:14:17.420Z,8.83
2022-09-26T01:19:40.551Z,8.89
2022-09-26T01:25:06.063Z,8.94
2022-09-26T01:30:26.786Z,8.97
2022-09-26T01:35:47.290Z,9.01
2022-09-26T01:41:01.485Z,9.02
2022-09-26T01:46:26.723Z,9.01
2022-09-26T01:51:36.693Z,9.01
2022-09-26T01:56:40.413Z,9.01
2022-09-26T02:01:45.238Z,8.99
2022-09-26T02:06:56.114Z,9.01
2022-09-26T02:12:04.522Z,9.02
2022-09-26T02:17:12.689Z,9.02
2022-09-26T02:22:14.777Z,9.05
2022-09-26T02:27:16.679Z,9.08
2022-09-26T02:32:23.931Z,9.09
2022-09-26T02:37:28.809Z,9.16
2022-09-26T02:42:58.050Z,9.17
2022-09-26T02:48:27.867Z,9.22
2022-09-26T02:54:03.380Z,9.17
2022-09-26T02:59:21.538Z,9.24
2022-09-26T03:04:30.062Z,9.23
2022-09-26T03:09:34.180Z,9.24
2022-09-26T03:14:39.164Z,9.26
2022-09-26T03:19:48.518Z,9.23
2022-09-26T03:24:50.133Z,9.26
2022-09-26T03:29:53.520Z,9.33
2022-09-26T03:34:58.877Z,9.35
2022-09-26T03:40:04.231Z,9.41
2022-09-26T03:45:25.103Z,9.46
2022-09-26T03:50:48.226Z,9.44
2022-09-26T03:55:50.134Z,9.45
2022-09-26T04:00:51.792Z,9.49
2022-09-26T04:05:53.853Z,9.54
2022-09-26T04:11:15.202Z,9.61
2022-09-26T04:16:16.944Z,9.63
2022-09-26T04:21:27.353Z,9.70
2022-09-26T04:26:29.732Z,9.75
2022-09-26T04:31:32.528Z,9.79
2022-09-26T04:36:43.826Z,9.77
2022-09-26T04:41:45.682Z,9.77
2022-09-26T04:46:48.368Z,9.79
2022-09-26T04:51:52.032Z,9.76
2022-09-26T04:56:54.129Z,9.70
2022-09-26T05:01:57.464Z,9.66
2022-09-26T05:07:04.261Z,9.60
2022-09-26T05:12:07.779Z,9.61
2022-09-26T05:17:16.333Z,9.63
2022-09-26T05:22:20.527Z,9.61
2022-09-26T05:27:25.361Z,9.59
2022-09-26T05:32:29.100Z,9.58
2022-09-26T05:37:31.630Z,9.58
2022-09-26T05:42:34.220Z,9.58
2022-09-26T05:47:36.843Z,9.57
2022-09-26T05:52:40.654Z,9.55
2022-09-26T05:57:52.753Z,9.59
2022-09-26T06:03:03.888Z,9.53
2022-09-26T06:08:25.333Z,9.51
2022-09-26T06:13:47.249Z,9.53
2022-09-26T06:18:52.421Z,9.57
2022-09-26T06:23:54.306Z,9.59
2022-09-26T06:29:00.103Z,9.62
2022-09-26T06:34:05.343Z,9.69
2022-09-26T06:39:35.848Z,9.73
2022-09-26T06:44:39.477Z,9.80
2022-09-26T06:50:04.923Z,9.86
2022-09-26T06:55:11.141Z,9.95
2022-09-26T07:00:15.841Z,9.98
2022-09-26T07:05:39.841Z,10.02
2022-09-26T07:10:41.677Z,10.04
2022-09-26T07:15:48.024Z,10.17
2022-09-26T07:21:07.026Z,10.40
2022-09-26T07:26:44.908Z,10.65
2022-09-26T07:31:46.902Z,11.10
2022-09-26T07:37:08.935Z,11.21
2022-09-26T07:42:10.855Z,10.96
2022-09-26T07:47:31.142Z,10.92
2022-09-26T07:52:33.243Z,10.76
2022-09-26T07:57:53.749Z,10.76
2022-09-26T08:03:12.137Z,10.73
2022-09-26T08:08:15.014Z,10.70
2022-09-26T08:13:34.721Z,10.72
2022-09-26T08:18:55.203Z,10.77
2022-09-26T08:23:58.970Z,10.76
2022-09-26T08:29:23.546Z,10.81
2022-09-26T08:34:27.801Z,10.83
2022-09-26T08:40:00.701Z,10.85
2022-09-26T08:46:03.782Z,10.78
2022-09-26T08:51:39.012Z,10.72
2022-09-26T08:56:45.918Z,10.75
2022-09-26T09:01:48.875Z,10.82
2022-09-26T09:07:21.441Z,10.92
2022-09-26T09:12:39.302Z,10.89
2022-09-26T09:18:27.729Z,10.84
2022-09-26T09:24:22.188Z,10.75
2022-09-26T09:29:42.315Z,10.63
2022-09-26T09:35:13.997Z,10.77
2022-09-26T09:40:43.099Z,10.92
2022-09-26T09:45:51.531Z,10.87
2022-09-26T09:50:56.334Z,10.79
2022-09-26T09:56:23.465Z,10.78
2022-09-26T10:01:31.840Z,10.69
2022-09-26T10:06:44.620Z,10.75
2022-09-26T10:11:52.805Z,10.82
2022-09-26T10:17:33.125Z,10.82
2022-09-26T10:23:06.198Z,10.88
2022-09-26T10:28:27.131Z,11.02
2022-09-26T10:33:35.959Z,11.06
2022-09-26T10:39:18.536Z,11.20
2022-09-26T10:44:26.449Z,11.40
2022-09-26T10:49:45.815Z,11.42
2022-09-26T10:55:43.744Z,11.55
2022-09-26T11:00:50.730Z,11.61
2022-09-26T11:05:57.462Z,11.53
2022-09-26T11:11:05.075Z,11.38
2022-09-26T11:16:17.963Z,11.34
2022-09-26T11:21:57.082Z,11.20
2022-09-26T11:27:20.566Z,11.04
2022-09-26T11:32:38.666Z,10.98
2022-09-26T11:38:26.651Z,10.97
2022-09-26T11:43:55.923Z,10.87
2022-09-26T11:49:28.503Z,10.72
2022-09-26T11:55:00.992Z,10.63
2022-09-26T12:00:08.644Z,10.53
2022-09-26T12:05:27.376Z,10.50
2022-09-26T12:10:41.666Z,10.46
2022-09-26T12:16:03.022Z,10.49
2022-09-26T12:21:25.693Z,10.54
2022-09-26T12:26:51.112Z,10.52
2022-09-26T12:32:20.886Z,10.52
2022-09-26T12:37:23.355Z,10.51
2022-09-26T12:43:00.477Z,10.46
2022-09-26T12:48:14.740Z,10.47
2022-09-26T12:53:25.422Z,10.49
2022-09-26T12:58:33.614Z,10.49
2022-09-26T13:03:44.810Z,10.56
2022-09-26T13:08:46.896Z,10.64
2022-09-26T13:14:16.669Z,10.60
2022-09-26T13:19:24.016Z,10.49
2022-09-26T13:24:35.750Z,10.41
2022-09-26T13:29:40.951Z,10.27
2022-09-26T13:34:51.359Z,10.22
2022-09-26T13:40:04.446Z,10.24
2022-09-26T13:45:19.144Z,10.29
2022-09-26T13:50:44.178Z,10.32
2022-09-26T13:55:47.015Z,10.28
2022-09-26T14:00:52.942Z,10.32
2022-09-26T14:06:08.478Z,10.29
2022-09-26T14:11:18.914Z,10.32
2022-09-26T14:16:36.463Z,10.30
2022-09-26T14:21:46.359Z,10.29
2022-09-26T14:27:02.203Z,10.35
2022-09-26T14:32:09.595Z,10.33
2022-09-26T14:37:26.688Z,10.31
2022-09-26T14:42:40.350Z,10.28
2022-09-26T14:47:50.271Z,10.22
2022-09-26T14:53:12.706Z,10.19
2022-09-26T14:58:44.975Z,10.25
2022-09-26T15:04:15.391Z,10.32
2022-09-26T15:09:37.294Z,10.33
2022-09-26T15:14:53.761Z,10.39
2022-09-26T15:19:59.434Z,10.40
2022-09-26T15:25:09.057Z,10.36
2022-09-26T15:30:24.292Z,10.40
2022-09-26T15:35:27.117Z,10.42
2022-09-26T15:40:31.579Z,10.45
2022-09-26T15:45:46.183Z,10.47
2022-09-26T15:51:02.109Z,10.49
2022-09-26T15:56:09.734Z,10.48
2022-09-26T16:01:17.457Z,10.40
2022-09-26T16:06:28.426Z,10.43
2022-09-26T16:11:30.658Z,10.40
2022-09-26T16:16:34.757Z,10.36
2022-09-26T16:21:37.644Z,10.42
2022-09-26T16:26:40.537Z,10.47
2022-09-26T16:31:47.390Z,10.47
2022-09-26T16:36:50.371Z,10.49
2022-09-26T16:42:03.199Z,10.43
2022-09-26T16:47:26.495Z,10.42
2022-09-26T16:52:35.589Z,10.39
2022-09-26T16:57:50.665Z,10.36
2022-09-26T17:02:52.263Z,10.36
2022-09-26T17:07:53.989Z,10.33
2022-09-26T17:12:56.574Z,10.37
2022-09-26T17:18:00.391Z,10.35
2022-09-26T17:23:17.130Z,10.33
2022-09-26T17:28:33.814Z,10.34
2022-09-26T17:33:40.596Z,10.37
2022-09-26T17:38:43.379Z,10.36
2022-09-26T17:43:45.141Z,10.36
2022-09-26T17:48:47.110Z,10.36
2022-09-26T17:53:50.763Z,10.36
2022-09-26T17:58:54.174Z,10.35
2022-09-26T18:04:00.904Z,10.35
2022-09-26T18:09:05.751Z,10.38
2022-09-26T18:14:08.281Z,10.37
2022-09-26T18:19:10.782Z,10.36
2022-09-26T18:24:19.698Z,10.38
2022-09-26T18:29:33.130Z,10.35
2022-09-26T18:34:34.725Z,10.37
2022-09-26T18:39:36.339Z,10.38
2022-09-26T18:44:38.059Z,10.37
2022-09-26T18:49:39.941Z,10.41
2022-09-26T18:54:44.596Z,10.43
2022-09-26T18:59:46.280Z,10.43
2022-09-26T19:04:48.455Z,10.40
2022-09-26T19:09:50.574Z,10.40
2022-09-26T19:14:52.185Z,10.42
2022-09-26T19:19:53.821Z,10.40
2022-09-26T19:25:00.035Z,10.40
2022-09-26T19:30:07.215Z,10.40
2022-09-26T19:35:34.861Z,10.36
2022-09-26T19:40:36.925Z,10.33
2022-09-26T19:45:38.750Z,10.33
2022-09-26T19:50:41.748Z,10.32
2022-09-26T19:55:44.001Z,10.35
2022-09-26T20:00:50.139Z,10.33
2022-09-26T20:05:52.273Z,10.31
2022-09-26T20:10:55.715Z,10.33
2022-09-26T20:15:57.635Z,10.34
2022-09-26T20:20:59.315Z,10.36
2022-09-26T20:26:00.836Z,10.36
2022-09-26T20:31:02.821Z,10.33
2022-09-26T20:36:06.451Z,10.33
2022-09-26T20:41:17.317Z,10.32
2022-09-26T20:46:22.075Z,10.33
2022-09-26T20:51:27.105Z,10.32
2022-09-26T20:56:29.108Z,10.32
2022-09-26T21:01:30.846Z,10.28
2022-09-26T21:06:34.199Z,10.27
2022-09-26T21:11:35.839Z,10.30
2022-09-26T21:16:43.585Z,10.26
2022-09-26T21:21:45.301Z,10.30
2022-09-26T21:27:03.163Z,10.30
2022-09-26T21:32:08.185Z,10.30
2022-09-26T21:37:10.487Z,10.36
2022-09-26T21:42:12.133Z,10.36
2022-09-26T21:47:15.087Z,10.31
2022-09-26T21:52:22.947Z,10.34
2022-09-26T21:57:31.059Z,10.35
2022-09-26T22:02:32.828Z,10.36
2022-09-26T22:07:34.422Z,10.36
2022-09-26T22:12:35.957Z,10.34
2022-09-26T22:17:37.818Z,10.36
2022-09-26T22:22:39.502Z,10.35
2022-09-26T22:27:41.215Z,10.38
2022-09-26T22:32:42.888Z,10.36
2022-09-26T22:37:44.547Z,10.37
2022-09-26T22:42:46.057Z,10.31
2022-09-26T22:47:47.638Z,10.22
2022-09-26T22:52:49.186Z,10.24
2022-09-26T22:57:51.502Z,10.22
2022-09-26T23:02:53.104Z,10.20
2022-09-26T23:07:54.773Z,10.23
2022-09-26T23:12:57.592Z,10.20
2022-09-26T23:17:59.502Z,10.22
2022-09-26T23:23:01.072Z,10.17
2022-09-26T23:28:04.157Z,10.15
2022-09-26T23:33:05.831Z,10.09
2022-09-26T23:38:07.842Z,10.08
2022-09-26T23:43:10.085Z,10.03
2022-09-26T23:48:11.920Z,10.01
2022-09-26T23:53:15.108Z,9.99
2022-09-26T23:58:16.648Z,9.98
